Ouray, Colorado
Current Conditions -  °F | °C
As of 5:15 AM on Saturday 20 Dec 2014 (Local Time) from KTEX Reporting Station
Clear Clear  
Wind Chill: 11°   Ceiling: Unl
Heat Index: 19°   Visibility: 10mi
Dew Point: 12°   Wind: 6mph
Humidity: 76%   Direction: 130°SE
Pressure: 30.14"   Gusts: NA
Location:  38.02°N, 107.67°W
Report Text: KTEX 201215Z AUTO 13005KT 10SM CLR M07/M11 A3014 RMK AO2 T10741109
Loading
Personal Weather Stations






























Interactive Weather Map New forecast layout! Learn more

10-Day Weather Forecast

Advertisements
Track Severe Weather on mobile